地図

経路データ

SID SEASON NUMBER BASIN SUBBASIN NAME ISO_TIME NATURE LAT LON WMO_WIND WMO_PRES WMO_AGENCY TRACK_TYPE DIST2LAND LANDFALL IFLAG USA_AGENCY USA_ATCF_ID USA_LAT USA_LON USA_RECORD USA_STATUS USA_WIND USA_PRES USA_SSHS USA_R34_NE USA_R34_SE USA_R34_SW USA_R34_NW USA_R50_NE USA_R50_SE USA_R50_SW USA_R50_NW USA_R64_NE USA_R64_SE USA_R64_SW USA_R64_NW USA_POCI USA_ROCI USA_RMW USA_EYE TOKYO_LAT TOKYO_LON TOKYO_GRADE TOKYO_WIND TOKYO_PRES TOKYO_R50_DIR TOKYO_R50_LONG TOKYO_R50_SHORT TOKYO_R30_DIR TOKYO_R30_LONG TOKYO_R30_SHORT TOKYO_LAND CMA_LAT CMA_LON CMA_CAT CMA_WIND CMA_PRES HKO_LAT HKO_LON HKO_CAT HKO_WIND HKO_PRES NEWDELHI_LAT NEWDELHI_LON NEWDELHI_GRADE NEWDELHI_WIND NEWDELHI_PRES NEWDELHI_CI NEWDELHI_DP NEWDELHI_POCI REUNION_LAT REUNION_LON REUNION_TYPE REUNION_WIND REUNION_PRES REUNION_TNUM REUNION_CI REUNION_RMW REUNION_R34_NE REUNION_R34_SE REUNION_R34_SW REUNION_R34_NW REUNION_R50_NE REUNION_R50_SE REUNION_R50_SW REUNION_R50_NW REUNION_R64_NE REUNION_R64_SE REUNION_R64_SW REUNION_R64_NW BOM_LAT BOM_LON BOM_TYPE BOM_WIND BOM_PRES BOM_TNUM BOM_CI BOM_RMW BOM_R34_NE BOM_R34_SE BOM_R34_SW BOM_R34_NW BOM_R50_NE BOM_R50_SE BOM_R50_SW BOM_R50_NW BOM_R64_NE BOM_R64_SE BOM_R64_SW BOM_R64_NW BOM_ROCI BOM_POCI BOM_EYE BOM_POS_METHOD BOM_PRES_METHOD NADI_LAT NADI_LON NADI_CAT NADI_WIND NADI_PRES WELLINGTON_LAT WELLINGTON_LON WELLINGTON_WIND WELLINGTON_PRES DS824_LAT DS824_LON DS824_STAGE DS824_WIND DS824_PRES TD9636_LAT TD9636_LON TD9636_STAGE TD9636_WIND TD9636_PRES TD9635_LAT TD9635_LON TD9635_WIND TD9635_PRES TD9635_ROCI NEUMANN_LAT NEUMANN_LON NEUMANN_CLASS NEUMANN_WIND NEUMANN_PRES MLC_LAT MLC_LON MLC_CLASS MLC_WIND MLC_PRES USA_GUST BOM_GUST BOM_GUST_PER REUNION_GUST REUNION_GUST_PER USA_SEAHGT USA_SEARAD_NE USA_SEARAD_SE USA_SEARAD_SW USA_SEARAD_NW STORM_SPEED STORM_DIR
1883343N23304 1883 36 NA NA NOT_NAMED 1883-12-08 12:00:00 TS 22.5000 -56.0000 main 1099 1091 _____________O -1 22.5000 -56.0000 TD 30 4 172
1883343N23304 1883 36 NA NA NOT_NAMED 1883-12-08 15:00:00 TS 22.3000 -56.0000 main 1091 1083 _____________P -1 22.3000 -56.0000 TD 30 4 0
1883343N23304 1883 36 NA NA NOT_NAMED 1883-12-08 18:00:00 TS 22.1000 -56.0000 main 1083 1075 _____________O -1 22.1000 -56.0000 TD 30 4 0
1883343N23304 1883 36 NA NA NOT_NAMED 1883-12-08 21:00:00 TS 21.9000 -56.0000 main 1075 1068 _____________P -1 21.9000 -56.0000 TD 30 4 0
1883343N23304 1883 36 NA NA NOT_NAMED 1883-12-09 00:00:00 TS 21.7000 -56.0000 main 1068 1061 _____________O -1 21.7000 -56.0000 TD 30 4 0
1883343N23304 1883 36 NA NA NOT_NAMED 1883-12-09 03:00:00 TS 21.4925 -56.0000 main 1061 1054 _____________P -1 21.4925 -56.0000 TD 30 4 0
1883343N23304 1883 36 NA NA NOT_NAMED 1883-12-09 06:00:00 TS 21.3000 -56.0000 main 1054 1048 _____________O -1 21.3000 -56.0000 TD 30 4 175
1883343N23304 1883 36 NA NA NOT_NAMED 1883-12-09 09:00:00 TS 21.1124 -55.9625 main 1048 1045 _____________P -1 21.1124 -55.9625 TD 32 3 0
1883343N23304 1883 36 NA NA NOT_NAMED 1883-12-09 12:00:00 TS 21.0000 -56.0000 main 1045 1025 _____________O -1 21.0000 -56.0000 TS 35 3 248
1883343N23304 1883 36 NA NA NOT_NAMED 1883-12-09 15:00:00 TS 21.0201 -56.2124 main 1025 998 _____________P -1 21.0201 -56.2124 TS 35 5 282
1883343N23304 1883 36 NA NA NOT_NAMED 1883-12-09 18:00:00 TS 21.1000 -56.5000 main 998 978 _____________O -1 21.1000 -56.5000 TS 35 5 284
1883343N23304 1883 36 NA NA NOT_NAMED 1883-12-09 21:00:00 TS 21.1500 -56.7500 main 968 952 _____________P -1 21.1500 -56.7500 TS 35 5 282
1883343N23304 1883 36 NA NA NOT_NAMED 1883-12-10 00:00:00 TS 21.2000 -57.0000 main 952 932 _____________O -1 21.2000 -57.0000 TS 35 5 283
1883343N23304 1883 36 NA NA NOT_NAMED 1883-12-10 03:00:00 TS 21.2575 -57.2500 main 936 906 _____________P -1 21.2575 -57.2500 TS 35 5 282
1883343N23304 1883 36 NA NA NOT_NAMED 1883-12-10 06:00:00 TS 21.3000 -57.5000 main 906 873 _____________O -1 21.3000 -57.5000 TS 35 5 268
1883343N23304 1883 36 NA NA NOT_NAMED 1883-12-10 09:00:00 TS 21.2401 -57.7951 main 873 854 _____________P -1 21.2401 -57.7951 TS 35 5 270
1883343N23304 1883 36 NA NA NOT_NAMED 1883-12-10 12:00:00 TS 21.3000 -58.0000 main 858 858 _____________O -1 21.3000 -58.0000 TS 35 5 335
1883343N23304 1883 36 NA NA NOT_NAMED 1883-12-10 15:00:00 TS 21.6749 -58.0174 main 875 875 _____________P -1 21.6749 -58.0174 TS 35 9 6
1883343N23304 1883 36 NA NA NOT_NAMED 1883-12-10 18:00:00 TS 22.2000 -57.9000 main 908 908 _____________O -1 22.2000 -57.9000 TS 35 11 14
1883343N23304 1883 36 NA NA NOT_NAMED 1883-12-10 21:00:00 TS 22.7000 -57.7301 main 952 952 _____________P -1 22.7000 -57.7301 TS 35 11 20
1883343N23304 1883 36 NA NA NOT_NAMED 1883-12-11 00:00:00 TS 23.2000 -57.5000 main 998 998 _____________O -1 23.2000 -57.5000 TS 35 11 24
1883343N23304 1883 36 NA NA NOT_NAMED 1883-12-11 03:00:00 TS 23.6575 -57.2574 main 1044 1044 _____________P -1 23.6575 -57.2574 TS 35 10 27
1883343N23304 1883 36 NA NA NOT_NAMED 1883-12-11 06:00:00 TS 24.1000 -57.0000 main 1095 1095 _____________O -1 24.1000 -57.0000 TS 35 9 23
1883343N23304 1883 36 NA NA NOT_NAMED 1883-12-11 09:00:00 TS 24.5188 -56.8604 main 1128 1128 _____________P -1 24.5188 -56.8604 TS 35 10 27
1883343N23304 1883 36 NA NA NOT_NAMED 1883-12-11 12:00:00 TS 25.0000 -56.5000 main 1194 1194 _____________O -1 25.0000 -56.5000 TS 35 16 46
1883343N23304 1883 36 NA NA NOT_NAMED 1883-12-11 15:00:00 TS 25.6285 -55.6136 main 1306 1306 _____________P -1 25.6285 -55.6136 TS 32 22 54
1883343N23304 1883 36 NA NA NOT_NAMED 1883-12-11 18:00:00 TS 26.3000 -54.5000 main 1441 1441 _____________O -1 26.3000 -54.5000 TD 30 23 56
1883343N23304 1883 36 NA NA NOT_NAMED 1883-12-11 21:00:00 TS 26.9202 -53.4633 main 1561 1561 _____________P -1 26.9202 -53.4633 TD 30 22 56
1883343N23304 1883 36 NA NA NOT_NAMED 1883-12-12 00:00:00 TS 27.5000 -52.5000 main 1680 _____________O -1 27.5000 -52.5000 TD 30 21 56

IBTrACS Databaseについて

本データベースは、米国NOAAが公開する1842年以降の世界の熱帯低気圧のベストトラックデータアーカイブInternational Best Track Archive for Climate Stewardship (IBTrACS)を、ウェブで閲覧しやすい形式に変換したものです。

最終更新日:2021-10-08